sensor_id;sensor_type;location;lat;lon;timestamp;P1;durP1;ratioP1;P2;durP2;ratioP2
20118;SDS011;10220;42.716;23.306;2023-04-25T00:01:00;2.78;;;1.25;;
20118;SDS011;10220;42.716;23.306;2023-04-25T00:03:26;1.77;;;1.38;;
20118;SDS011;10220;42.716;23.306;2023-04-25T00:05:51;1.58;;;1.35;;
20118;SDS011;10220;42.716;23.306;2023-04-25T00:08:17;1.88;;;1.35;;
20118;SDS011;10220;42.716;23.306;2023-04-25T00:10:42;2.28;;;1.10;;
20118;SDS011;10220;42.716;23.306;2023-04-25T00:13:08;3.58;;;1.23;;
20118;SDS011;10220;42.716;23.306;2023-04-25T00:15:34;1.52;;;1.42;;
20118;SDS011;10220;42.716;23.306;2023-04-25T00:18:01;2.67;;;1.88;;
20118;SDS011;10220;42.716;23.306;2023-04-25T00:20:26;2.97;;;1.77;;
20118;SDS011;10220;42.716;23.306;2023-04-25T00:22:52;1.23;;;0.95;;
20118;SDS011;10220;42.716;23.306;2023-04-25T00:25:18;1.52;;;1.23;;
20118;SDS011;10220;42.716;23.306;2023-04-25T00:27:43;3.15;;;1.80;;
20118;SDS011;10220;42.716;23.306;2023-04-25T00:30:09;2.60;;;1.40;;
20118;SDS011;10220;42.716;23.306;2023-04-25T00:32:38;3.88;;;2.28;;
20118;SDS011;10220;42.716;23.306;2023-04-25T00:35:04;2.65;;;1.75;;
20118;SDS011;10220;42.716;23.306;2023-04-25T00:37:29;3.08;;;1.77;;
20118;SDS011;10220;42.716;23.306;2023-04-25T00:39:55;4.57;;;2.17;;
20118;SDS011;10220;42.716;23.306;2023-04-25T00:42:22;4.70;;;2.58;;
20118;SDS011;10220;42.716;23.306;2023-04-25T00:44:48;2.53;;;1.80;;
20118;SDS011;10220;42.716;23.306;2023-04-25T00:47:13;3.25;;;1.90;;
20118;SDS011;10220;42.716;23.306;2023-04-25T00:49:40;5.32;;;2.28;;
20118;SDS011;10220;42.716;23.306;2023-04-25T00:52:06;3.28;;;1.63;;
20118;SDS011;10220;42.716;23.306;2023-04-25T00:54:31;2.90;;;1.70;;
20118;SDS011;10220;42.716;23.306;2023-04-25T00:56:59;3.28;;;1.77;;
20118;SDS011;10220;42.716;23.306;2023-04-25T00:59:26;3.63;;;1.48;;
20118;SDS011;10220;42.716;23.306;2023-04-25T01:01:56;4.10;;;1.95;;
20118;SDS011;10220;42.716;23.306;2023-04-25T01:04:21;4.97;;;1.80;;
20118;SDS011;10220;42.716;23.306;2023-04-25T01:06:49;4.57;;;2.30;;
20118;SDS011;10220;42.716;23.306;2023-04-25T01:09:15;2.80;;;1.95;;
20118;SDS011;10220;42.716;23.306;2023-04-25T01:11:41;4.07;;;2.17;;
20118;SDS011;10220;42.716;23.306;2023-04-25T01:14:06;2.25;;;1.90;;
20118;SDS011;10220;42.716;23.306;2023-04-25T01:16:32;3.03;;;2.20;;
20118;SDS011;10220;42.716;23.306;2023-04-25T01:18:58;3.75;;;2.03;;
20118;SDS011;10220;42.716;23.306;2023-04-25T01:21:24;4.25;;;2.42;;
20118;SDS011;10220;42.716;23.306;2023-04-25T01:23:52;3.70;;;2.15;;
20118;SDS011;10220;42.716;23.306;2023-04-25T01:26:21;2.88;;;2.05;;
20118;SDS011;10220;42.716;23.306;2023-04-25T01:28:48;3.20;;;2.03;;
20118;SDS011;10220;42.716;23.306;2023-04-25T01:31:14;3.00;;;2.05;;
20118;SDS011;10220;42.716;23.306;2023-04-25T01:33:40;4.95;;;2.30;;
20118;SDS011;10220;42.716;23.306;2023-04-25T01:36:06;2.35;;;1.83;;
20118;SDS011;10220;42.716;23.306;2023-04-25T01:38:31;2.97;;;2.00;;
20118;SDS011;10220;42.716;23.306;2023-04-25T01:41:00;4.80;;;2.38;;
20118;SDS011;10220;42.716;23.306;2023-04-25T01:43:28;3.88;;;2.47;;
20118;SDS011;10220;42.716;23.306;2023-04-25T01:45:54;5.20;;;2.80;;
20118;SDS011;10220;42.716;23.306;2023-04-25T01:48:20;2.60;;;2.10;;
20118;SDS011;10220;42.716;23.306;2023-04-25T01:50:46;3.42;;;2.03;;
20118;SDS011;10220;42.716;23.306;2023-04-25T01:53:11;4.22;;;2.72;;
20118;SDS011;10220;42.716;23.306;2023-04-25T01:55:38;4.75;;;2.10;;
20118;SDS011;10220;42.716;23.306;2023-04-25T01:58:03;3.17;;;2.15;;
20118;SDS011;10220;42.716;23.306;2023-04-25T02:00:34;4.45;;;1.98;;
20118;SDS011;10220;42.716;23.306;2023-04-25T02:03:00;2.83;;;1.77;;
20118;SDS011;10220;42.716;23.306;2023-04-25T02:05:25;3.03;;;1.95;;
20118;SDS011;10220;42.716;23.306;2023-04-25T02:07:51;4.05;;;1.65;;
20118;SDS011;10220;42.716;23.306;2023-04-25T02:10:16;5.80;;;3.17;;
20118;SDS011;10220;42.716;23.306;2023-04-25T02:12:41;6.78;;;3.65;;
20118;SDS011;10220;42.716;23.306;2023-04-25T02:15:07;17.23;;;8.10;;
20118;SDS011;10220;42.716;23.306;2023-04-25T02:17:33;6.55;;;2.83;;
20118;SDS011;10220;42.716;23.306;2023-04-25T02:19:58;10.93;;;4.80;;
20118;SDS011;10220;42.716;23.306;2023-04-25T02:22:23;3.92;;;2.35;;
20118;SDS011;10220;42.716;23.306;2023-04-25T02:24:49;12.15;;;7.13;;
20118;SDS011;10220;42.716;23.306;2023-04-25T02:27:14;8.35;;;4.18;;
20118;SDS011;10220;42.716;23.306;2023-04-25T02:29:40;7.35;;;3.88;;
20118;SDS011;10220;42.716;23.306;2023-04-25T02:32:13;6.95;;;3.38;;
20118;SDS011;10220;42.716;23.306;2023-04-25T02:34:38;11.23;;;6.45;;
20118;SDS011;10220;42.716;23.306;2023-04-25T02:37:04;14.35;;;8.90;;
20118;SDS011;10220;42.716;23.306;2023-04-25T02:39:29;11.05;;;5.63;;
20118;SDS011;10220;42.716;23.306;2023-04-25T02:41:55;3.03;;;1.98;;
20118;SDS011;10220;42.716;23.306;2023-04-25T02:44:26;2.95;;;1.75;;
20118;SDS011;10220;42.716;23.306;2023-04-25T02:46:51;5.15;;;3.53;;
20118;SDS011;10220;42.716;23.306;2023-04-25T02:49:16;3.78;;;2.47;;
20118;SDS011;10220;42.716;23.306;2023-04-25T02:51:42;7.10;;;4.40;;
20118;SDS011;10220;42.716;23.306;2023-04-25T02:54:07;8.63;;;4.80;;
20118;SDS011;10220;42.716;23.306;2023-04-25T02:56:33;3.47;;;2.90;;
20118;SDS011;10220;42.716;23.306;2023-04-25T02:59:01;3.63;;;2.33;;
20118;SDS011;10220;42.716;23.306;2023-04-25T03:01:29;4.50;;;2.38;;
20118;SDS011;10220;42.716;23.306;2023-04-25T03:03:55;3.55;;;2.10;;
20118;SDS011;10220;42.716;23.306;2023-04-25T03:06:20;3.88;;;2.17;;
20118;SDS011;10220;42.716;23.306;2023-04-25T03:08:45;9.85;;;3.88;;
20118;SDS011;10220;42.716;23.306;2023-04-25T03:11:11;5.13;;;2.75;;
20118;SDS011;10220;42.716;23.306;2023-04-25T03:13:36;5.95;;;3.17;;
20118;SDS011;10220;42.716;23.306;2023-04-25T03:16:02;7.05;;;2.95;;
20118;SDS011;10220;42.716;23.306;2023-04-25T03:18:27;2.75;;;1.92;;
20118;SDS011;10220;42.716;23.306;2023-04-25T03:20:53;5.45;;;2.80;;
20118;SDS011;10220;42.716;23.306;2023-04-25T03:23:18;4.50;;;2.33;;
20118;SDS011;10220;42.716;23.306;2023-04-25T03:25:43;5.68;;;2.97;;
20118;SDS011;10220;42.716;23.306;2023-04-25T03:28:09;3.25;;;2.75;;
20118;SDS011;10220;42.716;23.306;2023-04-25T03:30:37;4.82;;;2.50;;
20118;SDS011;10220;42.716;23.306;2023-04-25T03:33:02;3.97;;;2.15;;
20118;SDS011;10220;42.716;23.306;2023-04-25T03:35:28;2.60;;;1.88;;
20118;SDS011;10220;42.716;23.306;2023-04-25T03:37:56;3.70;;;2.33;;
20118;SDS011;10220;42.716;23.306;2023-04-25T03:40:21;3.95;;;2.15;;
20118;SDS011;10220;42.716;23.306;2023-04-25T03:42:47;4.43;;;1.85;;
20118;SDS011;10220;42.716;23.306;2023-04-25T03:45:12;5.07;;;3.03;;
20118;SDS011;10220;42.716;23.306;2023-04-25T03:47:38;9.60;;;6.35;;
20118;SDS011;10220;42.716;23.306;2023-04-25T03:50:03;13.35;;;6.35;;
20118;SDS011;10220;42.716;23.306;2023-04-25T03:52:29;8.57;;;5.38;;
20118;SDS011;10220;42.716;23.306;2023-04-25T03:54:54;8.13;;;5.25;;
20118;SDS011;10220;42.716;23.306;2023-04-25T03:57:20;11.73;;;5.88;;
20118;SDS011;10220;42.716;23.306;2023-04-25T03:59:45;8.57;;;4.22;;
20118;SDS011;10220;42.716;23.306;2023-04-25T04:02:10;7.15;;;3.67;;
20118;SDS011;10220;42.716;23.306;2023-04-25T04:04:36;9.85;;;3.63;;
20118;SDS011;10220;42.716;23.306;2023-04-25T04:07:02;4.88;;;3.03;;
20118;SDS011;10220;42.716;23.306;2023-04-25T04:09:27;6.35;;;3.42;;
20118;SDS011;10220;42.716;23.306;2023-04-25T04:11:53;5.53;;;3.90;;
20118;SDS011;10220;42.716;23.306;2023-04-25T04:14:20;5.07;;;3.83;;
20118;SDS011;10220;42.716;23.306;2023-04-25T04:16:48;6.95;;;3.72;;
20118;SDS011;10220;42.716;23.306;2023-04-25T04:19:14;5.97;;;3.30;;
20118;SDS011;10220;42.716;23.306;2023-04-25T04:21:39;5.95;;;4.07;;
20118;SDS011;10220;42.716;23.306;2023-04-25T04:24:05;5.68;;;3.95;;
20118;SDS011;10220;42.716;23.306;2023-04-25T04:26:33;7.25;;;3.50;;
20118;SDS011;10220;42.716;23.306;2023-04-25T04:28:59;4.20;;;2.78;;
20118;SDS011;10220;42.716;23.306;2023-04-25T04:31:25;4.47;;;2.55;;
20118;SDS011;10220;42.716;23.306;2023-04-25T04:33:50;3.25;;;2.60;;
20118;SDS011;10220;42.716;23.306;2023-04-25T04:36:23;4.38;;;2.60;;
20118;SDS011;10220;42.716;23.306;2023-04-25T04:38:53;5.95;;;3.50;;
20118;SDS011;10220;42.716;23.306;2023-04-25T04:41:19;9.32;;;3.70;;
20118;SDS011;10220;42.716;23.306;2023-04-25T04:43:47;4.43;;;3.28;;
20118;SDS011;10220;42.716;23.306;2023-04-25T04:46:13;6.18;;;3.30;;
20118;SDS011;10220;42.716;23.306;2023-04-25T04:48:41;6.70;;;4.03;;
20118;SDS011;10220;42.716;23.306;2023-04-25T04:51:06;7.10;;;3.90;;
20118;SDS011;10220;42.716;23.306;2023-04-25T04:53:34;5.95;;;3.45;;
20118;SDS011;10220;42.716;23.306;2023-04-25T04:55:59;5.35;;;3.85;;
20118;SDS011;10220;42.716;23.306;2023-04-25T04:58:40;8.55;;;4.43;;
20118;SDS011;10220;42.716;23.306;2023-04-25T05:01:05;7.00;;;3.67;;
20118;SDS011;10220;42.716;23.306;2023-04-25T05:03:31;5.28;;;3.17;;
20118;SDS011;10220;42.716;23.306;2023-04-25T05:05:59;6.18;;;3.53;;
20118;SDS011;10220;42.716;23.306;2023-04-25T05:08:32;5.43;;;3.30;;
20118;SDS011;10220;42.716;23.306;2023-04-25T05:11:01;5.30;;;3.10;;
20118;SDS011;10220;42.716;23.306;2023-04-25T05:13:27;7.18;;;2.35;;
20118;SDS011;10220;42.716;23.306;2023-04-25T05:15:52;7.30;;;4.00;;
20118;SDS011;10220;42.716;23.306;2023-04-25T05:18:17;4.50;;;3.30;;
20118;SDS011;10220;42.716;23.306;2023-04-25T05:20:43;6.32;;;3.33;;
20118;SDS011;10220;42.716;23.306;2023-04-25T05:23:08;4.75;;;2.70;;
20118;SDS011;10220;42.716;23.306;2023-04-25T05:25:33;8.90;;;3.15;;
20118;SDS011;10220;42.716;23.306;2023-04-25T05:27:59;6.22;;;3.38;;
20118;SDS011;10220;42.716;23.306;2023-04-25T05:30:25;5.90;;;4.05;;
20118;SDS011;10220;42.716;23.306;2023-04-25T05:32:50;7.22;;;3.65;;
20118;SDS011;10220;42.716;23.306;2023-04-25T05:35:16;4.28;;;2.92;;
20118;SDS011;10220;42.716;23.306;2023-04-25T05:37:41;7.15;;;4.40;;
20118;SDS011;10220;42.716;23.306;2023-04-25T05:40:07;5.82;;;3.42;;
20118;SDS011;10220;42.716;23.306;2023-04-25T05:42:33;6.70;;;4.07;;
20118;SDS011;10220;42.716;23.306;2023-04-25T05:44:59;7.00;;;4.22;;
20118;SDS011;10220;42.716;23.306;2023-04-25T05:47:25;4.38;;;3.58;;
20118;SDS011;10220;42.716;23.306;2023-04-25T05:49:51;6.95;;;4.55;;
20118;SDS011;10220;42.716;23.306;2023-04-25T05:52:16;5.82;;;3.55;;
20118;SDS011;10220;42.716;23.306;2023-04-25T05:54:42;6.63;;;4.18;;
20118;SDS011;10220;42.716;23.306;2023-04-25T05:57:07;7.78;;;4.78;;
20118;SDS011;10220;42.716;23.306;2023-04-25T05:59:32;9.15;;;5.55;;
20118;SDS011;10220;42.716;23.306;2023-04-25T06:01:58;8.48;;;5.82;;
20118;SDS011;10220;42.716;23.306;2023-04-25T06:04:24;8.00;;;4.68;;
20118;SDS011;10220;42.716;23.306;2023-04-25T06:06:50;8.65;;;4.45;;
20118;SDS011;10220;42.716;23.306;2023-04-25T06:09:15;7.60;;;4.25;;
20118;SDS011;10220;42.716;23.306;2023-04-25T06:11:41;9.15;;;5.28;;
20118;SDS011;10220;42.716;23.306;2023-04-25T06:14:06;7.43;;;4.95;;
20118;SDS011;10220;42.716;23.306;2023-04-25T06:16:32;6.63;;;3.97;;
20118;SDS011;10220;42.716;23.306;2023-04-25T06:18:58;4.90;;;3.50;;
20118;SDS011;10220;42.716;23.306;2023-04-25T06:21:23;7.47;;;4.43;;
20118;SDS011;10220;42.716;23.306;2023-04-25T06:23:48;13.95;;;3.80;;
20118;SDS011;10220;42.716;23.306;2023-04-25T06:26:14;5.13;;;3.47;;
20118;SDS011;10220;42.716;23.306;2023-04-25T06:28:39;5.65;;;4.07;;
20118;SDS011;10220;42.716;23.306;2023-04-25T06:31:05;5.90;;;3.85;;
20118;SDS011;10220;42.716;23.306;2023-04-25T06:33:31;6.47;;;3.33;;
20118;SDS011;10220;42.716;23.306;2023-04-25T06:35:56;7.55;;;4.07;;
20118;SDS011;10220;42.716;23.306;2023-04-25T06:38:22;14.63;;;7.20;;
20118;SDS011;10220;42.716;23.306;2023-04-25T06:40:47;10.93;;;4.43;;
20118;SDS011;10220;42.716;23.306;2023-04-25T06:43:12;14.50;;;6.75;;
20118;SDS011;10220;42.716;23.306;2023-04-25T06:45:38;8.57;;;4.20;;
20118;SDS011;10220;42.716;23.306;2023-04-25T06:48:03;8.27;;;4.53;;
20118;SDS011;10220;42.716;23.306;2023-04-25T06:50:29;6.63;;;4.40;;
20118;SDS011;10220;42.716;23.306;2023-04-25T06:52:54;7.70;;;4.07;;
20118;SDS011;10220;42.716;23.306;2023-04-25T06:55:20;5.90;;;3.25;;
20118;SDS011;10220;42.716;23.306;2023-04-25T06:57:45;5.90;;;3.20;;
20118;SDS011;10220;42.716;23.306;2023-04-25T07:00:11;6.30;;;3.85;;
20118;SDS011;10220;42.716;23.306;2023-04-25T07:02:37;7.72;;;3.55;;
20118;SDS011;10220;42.716;23.306;2023-04-25T07:05:02;6.47;;;2.88;;
20118;SDS011;10220;42.716;23.306;2023-04-25T07:07:29;5.03;;;3.83;;
20118;SDS011;10220;42.716;23.306;2023-04-25T07:09:55;7.50;;;3.75;;
20118;SDS011;10220;42.716;23.306;2023-04-25T07:12:21;6.43;;;3.15;;
20118;SDS011;10220;42.716;23.306;2023-04-25T07:14:47;6.60;;;4.15;;
20118;SDS011;10220;42.716;23.306;2023-04-25T07:17:12;9.48;;;3.30;;
20118;SDS011;10220;42.716;23.306;2023-04-25T07:19:37;5.22;;;3.33;;
20118;SDS011;10220;42.716;23.306;2023-04-25T07:22:04;6.60;;;3.58;;
20118;SDS011;10220;42.716;23.306;2023-04-25T07:24:30;5.15;;;3.15;;
20118;SDS011;10220;42.716;23.306;2023-04-25T07:26:56;6.47;;;3.33;;
20118;SDS011;10220;42.716;23.306;2023-04-25T07:29:22;7.35;;;2.50;;
20118;SDS011;10220;42.716;23.306;2023-04-25T07:31:48;6.18;;;3.90;;
20118;SDS011;10220;42.716;23.306;2023-04-25T07:34:13;5.05;;;3.80;;
20118;SDS011;10220;42.716;23.306;2023-04-25T07:36:39;4.80;;;3.08;;
20118;SDS011;10220;42.716;23.306;2023-04-25T07:39:05;4.95;;;3.58;;
20118;SDS011;10220;42.716;23.306;2023-04-25T07:41:30;6.53;;;3.90;;
20118;SDS011;10220;42.716;23.306;2023-04-25T07:43:56;7.35;;;4.25;;
20118;SDS011;10220;42.716;23.306;2023-04-25T07:46:21;7.95;;;3.92;;
20118;SDS011;10220;42.716;23.306;2023-04-25T07:48:46;8.30;;;3.95;;
20118;SDS011;10220;42.716;23.306;2023-04-25T07:51:12;5.65;;;3.55;;
20118;SDS011;10220;42.716;23.306;2023-04-25T07:53:37;9.90;;;6.80;;
20118;SDS011;10220;42.716;23.306;2023-04-25T07:56:03;14.70;;;9.48;;
20118;SDS011;10220;42.716;23.306;2023-04-25T07:58:28;10.40;;;6.43;;
20118;SDS011;10220;42.716;23.306;2023-04-25T08:00:54;6.55;;;4.45;;
20118;SDS011;10220;42.716;23.306;2023-04-25T08:03:19;12.02;;;6.32;;
20118;SDS011;10220;42.716;23.306;2023-04-25T08:05:46;10.73;;;6.63;;
20118;SDS011;10220;42.716;23.306;2023-04-25T08:08:11;6.50;;;3.97;;
20118;SDS011;10220;42.716;23.306;2023-04-25T08:10:37;14.25;;;5.32;;
20118;SDS011;10220;42.716;23.306;2023-04-25T08:13:02;11.82;;;6.38;;
20118;SDS011;10220;42.716;23.306;2023-04-25T08:15:28;5.20;;;3.90;;
20118;SDS011;10220;42.716;23.306;2023-04-25T08:17:53;7.18;;;5.30;;
20118;SDS011;10220;42.716;23.306;2023-04-25T08:20:20;5.45;;;4.40;;
20118;SDS011;10220;42.716;23.306;2023-04-25T08:22:45;14.70;;;9.32;;
20118;SDS011;10220;42.716;23.306;2023-04-25T08:25:11;9.45;;;4.10;;
20118;SDS011;10220;42.716;23.306;2023-04-25T08:27:36;16.40;;;9.55;;
20118;SDS011;10220;42.716;23.306;2023-04-25T08:30:02;5.53;;;3.90;;
20118;SDS011;10220;42.716;23.306;2023-04-25T08:32:28;8.85;;;4.45;;
20118;SDS011;10220;42.716;23.306;2023-04-25T08:34:54;18.08;;;11.73;;
20118;SDS011;10220;42.716;23.306;2023-04-25T08:37:20;10.85;;;5.47;;
20118;SDS011;10220;42.716;23.306;2023-04-25T08:39:46;10.23;;;5.57;;
20118;SDS011;10220;42.716;23.306;2023-04-25T08:42:13;7.05;;;3.90;;
20118;SDS011;10220;42.716;23.306;2023-04-25T08:44:40;7.32;;;5.53;;
20118;SDS011;10220;42.716;23.306;2023-04-25T08:47:05;4.72;;;3.80;;
20118;SDS011;10220;42.716;23.306;2023-04-25T08:49:34;6.68;;;4.40;;
20118;SDS011;10220;42.716;23.306;2023-04-25T08:52:00;9.93;;;4.22;;
20118;SDS011;10220;42.716;23.306;2023-04-25T08:54:28;5.20;;;3.38;;
20118;SDS011;10220;42.716;23.306;2023-04-25T08:56:56;7.80;;;2.90;;
20118;SDS011;10220;42.716;23.306;2023-04-25T08:59:23;9.85;;;5.65;;
20118;SDS011;10220;42.716;23.306;2023-04-25T09:01:49;6.15;;;4.57;;
20118;SDS011;10220;42.716;23.306;2023-04-25T09:04:15;8.55;;;4.05;;
20118;SDS011;10220;42.716;23.306;2023-04-25T09:06:40;4.03;;;2.90;;
20118;SDS011;10220;42.716;23.306;2023-04-25T09:09:06;6.28;;;3.80;;
20118;SDS011;10220;42.716;23.306;2023-04-25T09:11:36;11.48;;;6.45;;
20118;SDS011;10220;42.716;23.306;2023-04-25T09:14:12;6.75;;;3.85;;
20118;SDS011;10220;42.716;23.306;2023-04-25T09:19:32;5.63;;;3.85;;
20118;SDS011;10220;42.716;23.306;2023-04-25T09:22:01;3.67;;;3.15;;
20118;SDS011;10220;42.716;23.306;2023-04-25T09:24:35;6.43;;;4.20;;
20118;SDS011;10220;42.716;23.306;2023-04-25T09:27:06;4.25;;;3.35;;
20118;SDS011;10220;42.716;23.306;2023-04-25T09:29:33;3.22;;;2.38;;
20118;SDS011;10220;42.716;23.306;2023-04-25T09:34:49;7.47;;;4.00;;
20118;SDS011;10220;42.716;23.306;2023-04-25T09:37:19;4.25;;;2.97;;
20118;SDS011;10220;42.716;23.306;2023-04-25T09:39:58;5.72;;;3.78;;
20118;SDS011;10220;42.716;23.306;2023-04-25T09:42:26;2.35;;;2.08;;
20118;SDS011;10220;42.716;23.306;2023-04-25T09:44:54;4.00;;;2.80;;
20118;SDS011;10220;42.716;23.306;2023-04-25T09:47:22;4.28;;;2.92;;
20118;SDS011;10220;42.716;23.306;2023-04-25T09:49:50;3.40;;;2.63;;
20118;SDS011;10220;42.716;23.306;2023-04-25T09:52:33;3.15;;;2.20;;
20118;SDS011;10220;42.716;23.306;2023-04-25T09:54:59;3.05;;;2.58;;
20118;SDS011;10220;42.716;23.306;2023-04-25T09:57:24;4.65;;;3.42;;
20118;SDS011;10220;42.716;23.306;2023-04-25T09:59:50;4.30;;;2.15;;
20118;SDS011;10220;42.716;23.306;2023-04-25T10:02:24;2.17;;;1.25;;
20118;SDS011;10220;42.716;23.306;2023-04-25T10:04:53;2.13;;;1.80;;
20118;SDS011;10220;42.716;23.306;2023-04-25T10:07:20;2.72;;;2.03;;
20118;SDS011;10220;42.716;23.306;2023-04-25T10:09:50;7.07;;;2.35;;
20118;SDS011;10220;42.716;23.306;2023-04-25T10:12:26;4.72;;;1.70;;
20118;SDS011;10220;42.716;23.306;2023-04-25T10:14:52;1.48;;;1.20;;
20118;SDS011;10220;42.716;23.306;2023-04-25T10:17:17;2.13;;;1.60;;
20118;SDS011;10220;42.716;23.306;2023-04-25T10:19:45;7.05;;;3.60;;
20118;SDS011;10220;42.716;23.306;2023-04-25T10:22:20;4.07;;;1.40;;
20118;SDS011;10220;42.716;23.306;2023-04-25T10:24:54;2.00;;;1.40;;
20118;SDS011;10220;42.716;23.306;2023-04-25T10:27:21;1.42;;;1.05;;
20118;SDS011;10220;42.716;23.306;2023-04-25T10:29:59;2.35;;;1.75;;
20118;SDS011;10220;42.716;23.306;2023-04-25T10:32:30;2.15;;;1.10;;
20118;SDS011;10220;42.716;23.306;2023-04-25T10:34:57;0.80;;;0.80;;
20118;SDS011;10220;42.716;23.306;2023-04-25T10:37:22;0.95;;;0.70;;
20118;SDS011;10220;42.716;23.306;2023-04-25T10:39:49;0.73;;;0.73;;
20118;SDS011;10220;42.716;23.306;2023-04-25T10:42:14;2.03;;;1.05;;
20118;SDS011;10220;42.716;23.306;2023-04-25T10:44:40;1.33;;;0.80;;
20118;SDS011;10220;42.716;23.306;2023-04-25T10:47:06;0.70;;;0.70;;
20118;SDS011;10220;42.716;23.306;2023-04-25T10:54:56;0.77;;;0.77;;
20118;SDS011;10220;42.716;23.306;2023-04-25T10:57:34;0.55;;;0.52;;
20118;SDS011;10220;42.716;23.306;2023-04-25T11:05:10;0.60;;;0.57;;
20118;SDS011;10220;42.716;23.306;2023-04-25T11:07:44;1.13;;;0.75;;
20118;SDS011;10220;42.716;23.306;2023-04-25T11:10:31;0.63;;;0.55;;
20118;SDS011;10220;42.716;23.306;2023-04-25T11:13:00;3.45;;;1.50;;
20118;SDS011;10220;42.716;23.306;2023-04-25T11:15:25;1.13;;;0.80;;
20118;SDS011;10220;42.716;23.306;2023-04-25T11:17:51;4.47;;;2.38;;
20118;SDS011;10220;42.716;23.306;2023-04-25T11:20:17;3.00;;;1.10;;
20118;SDS011;10220;42.716;23.306;2023-04-25T11:22:44;1.75;;;0.70;;
20118;SDS011;10220;42.716;23.306;2023-04-25T11:25:10;1.63;;;1.38;;
20118;SDS011;10220;42.716;23.306;2023-04-25T11:27:38;2.97;;;1.00;;
20118;SDS011;10220;42.716;23.306;2023-04-25T11:30:14;0.40;;;0.40;;
20118;SDS011;10220;42.716;23.306;2023-04-25T11:32:43;0.80;;;0.52;;
20118;SDS011;10220;42.716;23.306;2023-04-25T11:35:09;1.05;;;0.52;;
20118;SDS011;10220;42.716;23.306;2023-04-25T11:37:36;0.40;;;0.40;;
20118;SDS011;10220;42.716;23.306;2023-04-25T11:40:04;1.38;;;0.63;;
20118;SDS011;10220;42.716;23.306;2023-04-25T11:42:31;0.52;;;0.50;;
20118;SDS011;10220;42.716;23.306;2023-04-25T11:44:57;2.45;;;0.85;;
20118;SDS011;10220;42.716;23.306;2023-04-25T11:47:30;0.70;;;0.70;;
20118;SDS011;10220;42.716;23.306;2023-04-25T11:49:57;0.98;;;0.80;;
20118;SDS011;10220;42.716;23.306;2023-04-25T11:52:24;0.70;;;0.70;;
20118;SDS011;10220;42.716;23.306;2023-04-25T11:54:49;0.82;;;0.80;;
20118;SDS011;10220;42.716;23.306;2023-04-25T11:57:18;0.82;;;0.60;;
20118;SDS011;10220;42.716;23.306;2023-04-25T11:59:44;0.70;;;0.70;;
20118;SDS011;10220;42.716;23.306;2023-04-25T12:02:23;3.28;;;0.60;;
20118;SDS011;10220;42.716;23.306;2023-04-25T12:04:49;1.05;;;0.77;;
20118;SDS011;10220;42.716;23.306;2023-04-25T12:07:15;0.90;;;0.65;;
20118;SDS011;10220;42.716;23.306;2023-04-25T12:09:40;0.30;;;0.30;;
20118;SDS011;10220;42.716;23.306;2023-04-25T12:12:09;0.30;;;0.30;;
20118;SDS011;10220;42.716;23.306;2023-04-25T12:14:35;0.30;;;0.30;;
20118;SDS011;10220;42.716;23.306;2023-04-25T12:17:02;0.82;;;0.60;;
20118;SDS011;10220;42.716;23.306;2023-04-25T12:19:32;0.30;;;0.30;;
20118;SDS011;10220;42.716;23.306;2023-04-25T12:21:59;0.57;;;0.40;;
20118;SDS011;10220;42.716;23.306;2023-04-25T12:24:26;0.77;;;0.43;;
20118;SDS011;10220;42.716;23.306;2023-04-25T12:29:29;0.43;;;0.43;;
20118;SDS011;10220;42.716;23.306;2023-04-25T12:31:56;1.15;;;0.55;;
20118;SDS011;10220;42.716;23.306;2023-04-25T12:34:22;0.95;;;0.55;;
20118;SDS011;10220;42.716;23.306;2023-04-25T12:36:48;0.40;;;0.38;;
20118;SDS011;10220;42.716;23.306;2023-04-25T12:39:19;0.50;;;0.50;;
20118;SDS011;10220;42.716;23.306;2023-04-25T12:41:49;0.43;;;0.38;;
20118;SDS011;10220;42.716;23.306;2023-04-25T12:44:16;0.90;;;0.43;;
20118;SDS011;10220;42.716;23.306;2023-04-25T12:46:42;0.45;;;0.40;;
20118;SDS011;10220;42.716;23.306;2023-04-25T12:49:07;0.65;;;0.50;;
20118;SDS011;10220;42.716;23.306;2023-04-25T12:51:36;0.57;;;0.52;;
20118;SDS011;10220;42.716;23.306;2023-04-25T12:54:02;0.93;;;0.50;;
20118;SDS011;10220;42.716;23.306;2023-04-25T12:56:29;0.77;;;0.52;;
20118;SDS011;10220;42.716;23.306;2023-04-25T12:58:55;2.10;;;0.70;;
20118;SDS011;10220;42.716;23.306;2023-04-25T13:01:21;2.30;;;0.95;;
20118;SDS011;10220;42.716;23.306;2023-04-25T13:03:47;2.28;;;0.80;;
20118;SDS011;10220;42.716;23.306;2023-04-25T13:06:14;1.52;;;0.95;;
20118;SDS011;10220;42.716;23.306;2023-04-25T13:08:40;1.33;;;0.88;;
20118;SDS011;10220;42.716;23.306;2023-04-25T13:11:06;0.77;;;0.65;;
20118;SDS011;10220;42.716;23.306;2023-04-25T13:13:32;1.95;;;1.40;;
20118;SDS011;10220;42.716;23.306;2023-04-25T13:15:59;3.17;;;1.05;;
20118;SDS011;10220;42.716;23.306;2023-04-25T13:18:25;0.98;;;0.77;;
20118;SDS011;10220;42.716;23.306;2023-04-25T13:20:53;2.53;;;1.58;;
20118;SDS011;10220;42.716;23.306;2023-04-25T13:23:19;1.50;;;1.00;;
20118;SDS011;10220;42.716;23.306;2023-04-25T13:25:47;1.55;;;1.25;;
20118;SDS011;10220;42.716;23.306;2023-04-25T13:28:13;1.67;;;1.40;;
20118;SDS011;10220;42.716;23.306;2023-04-25T13:30:39;3.25;;;1.85;;
20118;SDS011;10220;42.716;23.306;2023-04-25T13:33:05;3.05;;;2.08;;
20118;SDS011;10220;42.716;23.306;2023-04-25T13:35:31;2.30;;;1.52;;
20118;SDS011;10220;42.716;23.306;2023-04-25T13:37:58;3.08;;;1.92;;
20118;SDS011;10220;42.716;23.306;2023-04-25T13:40:24;4.88;;;1.58;;
20118;SDS011;10220;42.716;23.306;2023-04-25T13:42:49;3.38;;;2.13;;
20118;SDS011;10220;42.716;23.306;2023-04-25T13:45:16;2.25;;;1.63;;
20118;SDS011;10220;42.716;23.306;2023-04-25T13:47:41;2.95;;;1.88;;
20118;SDS011;10220;42.716;23.306;2023-04-25T13:50:07;2.63;;;1.75;;
20118;SDS011;10220;42.716;23.306;2023-04-25T13:52:33;3.67;;;2.30;;
20118;SDS011;10220;42.716;23.306;2023-04-25T13:54:59;1.85;;;1.70;;
20118;SDS011;10220;42.716;23.306;2023-04-25T13:57:24;4.65;;;2.25;;
20118;SDS011;10220;42.716;23.306;2023-04-25T13:59:50;7.47;;;2.50;;
20118;SDS011;10220;42.716;23.306;2023-04-25T14:02:16;2.90;;;1.90;;
20118;SDS011;10220;42.716;23.306;2023-04-25T14:04:42;2.95;;;1.23;;
20118;SDS011;10220;42.716;23.306;2023-04-25T14:07:08;2.22;;;1.63;;
20118;SDS011;10220;42.716;23.306;2023-04-25T14:09:33;2.22;;;1.77;;
20118;SDS011;10220;42.716;23.306;2023-04-25T14:11:59;2.25;;;1.92;;
20118;SDS011;10220;42.716;23.306;2023-04-25T14:14:25;1.67;;;1.48;;
20118;SDS011;10220;42.716;23.306;2023-04-25T14:16:51;1.63;;;1.10;;
20118;SDS011;10220;42.716;23.306;2023-04-25T14:19:18;0.80;;;0.80;;
20118;SDS011;10220;42.716;23.306;2023-04-25T14:21:44;1.08;;;0.98;;
20118;SDS011;10220;42.716;23.306;2023-04-25T14:24:10;1.55;;;0.90;;
20118;SDS011;10220;42.716;23.306;2023-04-25T14:26:38;1.48;;;1.02;;
20118;SDS011;10220;42.716;23.306;2023-04-25T14:29:07;0.85;;;0.85;;
20118;SDS011;10220;42.716;23.306;2023-04-25T14:31:33;0.95;;;0.90;;
20118;SDS011;10220;42.716;23.306;2023-04-25T14:34:00;1.20;;;1.10;;
20118;SDS011;10220;42.716;23.306;2023-04-25T14:36:26;3.83;;;1.48;;
20118;SDS011;10220;42.716;23.306;2023-04-25T14:38:53;3.17;;;1.30;;
20118;SDS011;10220;42.716;23.306;2023-04-25T14:41:18;1.40;;;1.00;;
20118;SDS011;10220;42.716;23.306;2023-04-25T14:43:43;1.58;;;1.20;;
20118;SDS011;10220;42.716;23.306;2023-04-25T14:46:12;1.83;;;1.23;;
20118;SDS011;10220;42.716;23.306;2023-04-25T14:48:37;1.92;;;0.90;;